Time;durP1;ratioP1;P1;durP2;ratioP2;P2;SDS_P1;SDS_P2;PMS_P1;PMS_P2;Temp;Humidity;BMP_temperature;BMP_pressure;BME280_temperature;BME280_humidity;BME280_pressure;Samples;Min_cycle;Max_cycle;Signal;HPM_P1;HPM_P2
2021/12/29 00:01:25;;;;;;;17.20;6.90;;;;;;;-7.12;80.22;99331.16;101997;1316;139156;-64
2021/12/29 00:03:53;;;;;;;10.10;5.80;;;;;;;-7.13;80.13;99333.95;102147;1316;25345;-64
2021/12/29 00:06:21;;;;;;;11.70;6.30;;;;;;;-7.18;80.20;99330.92;102162;1315;24323;-64
2021/12/29 00:08:49;;;;;;;11.80;6.00;;;;;;;-7.21;80.22;99333.96;102002;1316;138752;-65
2021/12/29 00:11:17;;;;;;;14.30;7.50;;;;;;;-7.22;80.31;99337.44;106210;1320;23089;-66
2021/12/29 00:13:45;;;;;;;10.10;5.70;;;;;;;-7.24;80.25;99335.04;106104;1316;138171;-66
2021/12/29 00:16:13;;;;;;;12.10;6.00;;;;;;;-7.27;80.26;99338.84;106265;1316;23218;-66
2021/12/29 00:18:41;;;;;;;12.70;6.20;;;;;;;-7.29;80.37;99340.25;106174;1316;139803;-66
2021/12/29 00:21:10;;;;;;;12.30;6.90;;;;;;;-7.28;80.47;99336.17;106239;1316;22311;-66
2021/12/29 00:23:38;;;;;;;13.20;7.00;;;;;;;-7.28;80.41;99335.59;106220;1316;22448;-66
2021/12/29 00:26:25;;;;;;;15.20;6.70;;;;;;;-7.27;80.40;99335.20;106173;1321;140651;-66
2021/12/29 00:28:54;;;;;;;11.60;5.90;;;;;;;-7.30;80.29;99334.20;106236;1317;22614;-65
2021/12/29 00:31:22;;;;;;;12.40;6.50;;;;;;;-7.32;80.29;99335.77;106123;1316;139830;-66
2021/12/29 00:34:08;;;;;;;10.50;6.30;;;;;;;-7.34;80.27;99329.27;106341;1316;22415;-66
2021/12/29 00:36:57;;;;;;;13.00;6.10;;;;;;;-7.36;80.26;99329.02;106240;1315;138221;-62
2021/12/29 00:39:44;;;;;;;13.40;5.70;;;;;;;-7.39;80.36;99326.48;106317;1316;23320;-61
2021/12/29 00:42:31;;;;;;;13.70;6.70;;;;;;;-7.40;80.43;99325.31;103073;1320;140053;-60
2021/12/29 00:45:17;;;;;;;14.30;7.20;;;;;;;-7.41;80.45;99317.43;102197;1316;23971;-60
2021/12/29 00:47:46;;;;;;;13.40;7.00;;;;;;;-7.42;80.36;99308.41;106288;1316;23132;-61
2021/12/29 00:50:15;;;;;;;13.50;6.90;;;;;;;-7.45;80.42;99308.30;106232;1316;139705;-61
2021/12/29 00:52:44;;;;;;;12.00;6.80;;;;;;;-7.46;80.44;99307.89;106291;1316;22388;-61
2021/12/29 00:55:16;;;;;;;12.20;6.60;;;;;;;-7.47;80.58;99305.48;106235;1315;139488;-62
2021/12/29 00:57:44;;;;;;;10.10;5.70;;;;;;;-7.48;80.60;99299.44;106355;1316;22261;-61
2021/12/29 01:00:17;;;;;;;11.10;6.30;;;;;;;-7.49;80.68;99300.39;106313;1316;22532;-61
2021/12/29 01:02:45;;;;;;;12.00;6.10;;;;;;;-7.48;80.61;99290.48;105464;1316;138615;-61
2021/12/29 01:05:14;;;;;;;11.50;5.80;;;;;;;-7.49;80.59;99285.60;106245;1317;23023;-64
2021/12/29 01:07:44;;;;;;;8.60;5.40;;;;;;;-7.50;80.77;99281.59;101994;1316;138365;-64
2021/12/29 01:10:13;;;;;;;10.80;6.10;;;;;;;-7.48;80.78;99274.94;102173;1315;22582;-64
2021/12/29 01:12:50;;;;;;;9.80;5.80;;;;;;;-7.48;80.71;99273.67;106164;1315;139948;-65
2021/12/29 01:15:24;;;;;;;11.60;6.20;;;;;;;-7.50;80.69;99267.31;106369;1315;22529;-66
2021/12/29 01:17:53;;;;;;;10.90;5.70;;;;;;;-7.51;80.77;99264.14;106355;1316;22505;-67
2021/12/29 01:20:22;;;;;;;8.50;5.30;;;;;;;-7.53;80.89;99261.15;106043;1316;138621;-66
2021/12/29 01:22:50;;;;;;;14.90;5.30;;;;;;;-7.55;80.91;99256.70;105766;1316;23384;-66
2021/12/29 01:25:18;;;;;;;11.30;5.50;;;;;;;-7.53;80.97;99258.33;106211;1319;138707;-66
2021/12/29 01:27:47;;;;;;;11.40;6.30;;;;;;;-7.53;81.05;99256.55;106220;1316;22991;-66
2021/12/29 01:30:15;;;;;;;10.60;5.40;;;;;;;-7.53;81.14;99260.61;106308;1316;23321;-66
2021/12/29 01:32:54;;;;;;;11.90;5.50;;;;;;;-7.51;81.05;99258.95;106221;1316;140043;-66
2021/12/29 01:35:24;;;;;;;11.20;5.60;;;;;;;-7.47;81.10;99267.64;105980;1316;22588;-66
2021/12/29 01:37:52;;;;;;;11.80;5.90;;;;;;;-7.45;81.15;99269.58;106149;1316;138473;-66
2021/12/29 01:40:19;;;;;;;8.90;5.60;;;;;;;-7.44;81.09;99273.71;106322;1316;22400;-66
2021/12/29 01:42:47;;;;;;;11.10;6.00;;;;;;;-7.43;81.23;99278.50;106226;1315;138262;-66
2021/12/29 01:45:15;;;;;;;10.40;5.20;;;;;;;-7.40;81.16;99275.59;106340;1320;22544;-66
2021/12/29 01:47:44;;;;;;;7.20;4.90;;;;;;;-7.37;81.15;99277.28;106372;1315;23313;-66
2021/12/29 01:50:19;;;;;;;13.20;5.70;;;;;;;-7.35;81.21;99274.68;105837;1316;138185;-65
2021/12/29 01:52:55;;;;;;;10.90;5.90;;;;;;;-7.33;81.13;99276.06;102358;1315;25367;-65
2021/12/29 01:55:27;;;;;;;12.40;6.40;;;;;;;-7.32;81.02;99280.92;102125;1316;138456;-64
2021/12/29 01:57:57;;;;;;;11.80;5.60;;;;;;;-7.31;81.03;99278.52;102232;1316;25521;-65
2021/12/29 02:00:29;;;;;;;10.70;6.10;;;;;;;-7.30;81.13;99278.61;106377;1315;23244;-66
2021/12/29 02:02:57;;;;;;;16.40;7.40;;;;;;;-7.27;81.23;99275.18;106210;1315;138095;-66
2021/12/29 02:05:25;;;;;;;12.00;5.20;;;;;;;-7.26;81.18;99272.89;105468;1319;22378;-62
2021/12/29 02:07:55;;;;;;;11.00;6.00;;;;;;;-7.25;81.11;99267.77;106245;1316;139001;-61
2021/12/29 02:10:24;;;;;;;12.50;6.20;;;;;;;-7.27;81.09;99265.30;106295;1315;22257;-61
2021/12/29 02:12:52;;;;;;;15.20;6.80;;;;;;;-7.30;81.22;99257.59;106235;1316;138223;-62
2021/12/29 02:15:20;;;;;;;13.90;7.00;;;;;;;-7.30;81.31;99254.77;106355;1315;22265;-61
2021/12/29 02:17:50;;;;;;;12.00;6.50;;;;;;;-7.31;81.31;99248.97;106246;1316;22473;-62
2021/12/29 02:20:21;;;;;;;10.00;6.10;;;;;;;-7.30;81.45;99244.26;106232;1315;138096;-62
2021/12/29 02:23:00;;;;;;;10.40;6.10;;;;;;;-7.30;81.55;99243.36;106343;1315;22431;-62
2021/12/29 02:25:46;;;;;;;13.20;5.60;;;;;;;-7.30;81.58;99237.48;106219;1316;139305;-62
2021/12/29 02:28:35;;;;;;;13.70;5.80;;;;;;;-7.30;81.62;99239.44;106345;1316;22556;-61
2021/12/29 02:31:03;;;;;;;9.80;5.20;;;;;;;-7.29;81.69;99240.27;106228;1317;139308;-61
2021/12/29 02:33:35;;;;;;;10.50;5.70;;;;;;;-7.28;81.69;99233.33;106309;1316;23103;-61
2021/12/29 02:36:04;;;;;;;10.40;5.80;;;;;;;-7.29;81.73;99234.23;106327;1316;22362;-61
2021/12/29 02:38:34;;;;;;;13.30;5.90;;;;;;;-7.27;81.87;99233.21;106238;1316;149969;-61
2021/12/29 02:41:04;;;;;;;9.80;5.70;;;;;;;-7.24;81.87;99232.21;106017;1316;22386;-65
2021/12/29 02:43:36;;;;;;;10.50;6.70;;;;;;;-7.25;81.75;99233.50;106205;1315;139052;-65
2021/12/29 02:46:11;;;;;;;10.00;6.30;;;;;;;-7.25;81.85;99224.98;106229;1315;22310;-65
2021/12/29 02:48:53;;;;;;;9.40;5.80;;;;;;;-7.24;81.79;99220.01;106224;1319;139278;-65
2021/12/29 02:51:21;;;;;;;9.80;5.80;;;;;;;-7.23;81.78;99219.59;106347;1316;22483;-65
2021/12/29 02:53:49;;;;;;;11.30;4.80;;;;;;;-7.23;81.80;99216.02;106338;1316;22428;-65
2021/12/29 02:56:17;;;;;;;10.20;5.90;;;;;;;-7.21;81.73;99221.26;106235;1320;139164;-65
2021/12/29 02:58:45;;;;;;;11.40;6.30;;;;;;;-7.21;81.69;99217.90;105374;1316;22485;-65
2021/12/29 03:01:14;;;;;;;11.00;6.30;;;;;;;-7.21;81.65;99221.84;106207;1316;139819;-66
2021/12/29 03:03:42;;;;;;;15.60;8.00;;;;;;;-7.23;81.61;99220.77;106348;1316;22389;-65
2021/12/29 03:06:11;;;;;;;11.70;6.70;;;;;;;-7.20;81.66;99220.95;106388;1319;22632;-66
2021/12/29 03:08:40;;;;;;;10.70;5.70;;;;;;;-7.18;81.74;99219.35;106185;1315;138706;-66
2021/12/29 03:11:09;;;;;;;10.30;6.10;;;;;;;-7.17;81.68;99225.29;106340;1316;23128;-65
2021/12/29 03:13:39;;;;;;;12.70;7.10;;;;;;;-7.17;81.56;99226.50;106238;1315;139664;-66
2021/12/29 03:16:07;;;;;;;9.90;5.80;;;;;;;-7.17;81.50;99229.69;106323;1315;22455;-66
2021/12/29 03:18:36;;;;;;;16.60;7.50;;;;;;;-7.18;81.44;99226.27;106216;1316;138032;-65
2021/12/29 03:21:04;;;;;;;12.90;6.20;;;;;;;-7.20;81.47;99224.11;106334;1316;22551;-65
2021/12/29 03:23:32;;;;;;;11.50;6.60;;;;;;;-7.18;81.43;99226.07;106343;1315;22478;-65
2021/12/29 03:26:02;;;;;;;13.10;7.00;;;;;;;-7.16;81.49;99224.47;106259;1316;138249;-65
2021/12/29 03:28:30;;;;;;;11.00;6.20;;;;;;;-7.15;81.52;99219.45;106380;1315;23104;-66
2021/12/29 03:30:58;;;;;;;14.40;5.90;;;;;;;-7.15;81.47;99216.38;106237;1315;138411;-65
2021/12/29 03:33:31;;;;;;;11.30;6.10;;;;;;;-7.14;81.43;99212.75;106344;1315;22450;-65
2021/12/29 03:36:01;;;;;;;11.60;6.00;;;;;;;-7.13;81.37;99212.16;106215;1316;23329;-65
2021/12/29 03:38:32;;;;;;;11.90;6.50;;;;;;;-7.12;81.40;99210.32;106249;1316;138511;-65
2021/12/29 03:41:00;;;;;;;13.80;6.30;;;;;;;-7.11;81.41;99212.67;106373;1315;22440;-65
2021/12/29 03:43:28;;;;;;;9.70;5.30;;;;;;;-7.11;81.35;99210.73;106218;1315;139874;-65
2021/12/29 03:45:56;;;;;;;9.20;5.10;;;;;;;-7.10;81.27;99211.52;106352;1316;22368;-65
2021/12/29 03:48:26;;;;;;;8.30;5.10;;;;;;;-7.10;81.34;99211.86;106333;1316;22409;-64
2021/12/29 03:50:55;;;;;;;10.00;4.70;;;;;;;-7.10;81.37;99214.70;106227;1315;138786;-64
2021/12/29 03:53:24;;;;;;;12.40;5.60;;;;;;;-7.10;81.33;99213.27;106235;1321;22672;-64
2021/12/29 03:55:52;;;;;;;10.80;5.50;;;;;;;-7.09;81.24;99214.42;105621;1322;139504;-64
2021/12/29 03:58:21;;;;;;;9.80;5.60;;;;;;;-7.06;81.17;99221.77;106352;1315;22476;-63
2021/12/29 04:00:51;;;;;;;13.10;5.90;;;;;;;-7.06;81.27;99215.67;106236;1316;138499;-63
2021/12/29 04:03:19;;;;;;;9.30;5.10;;;;;;;-7.05;81.31;99216.98;106329;1315;23173;-64
2021/12/29 04:05:47;;;;;;;9.40;5.20;;;;;;;-7.04;81.23;99216.19;103619;1316;24040;-64
2021/12/29 04:08:15;;;;;;;10.90;6.10;;;;;;;-7.01;81.33;99212.61;102117;1316;139471;-64
2021/12/29 04:14:14;;;;;;;9.50;5.00;;;;;;;-7.01;81.18;99211.88;102226;1315;138987;-64
2021/12/29 04:16:46;;;;;;;8.80;5.40;;;;;;;-7.04;81.15;99214.11;102342;1315;22521;-64
2021/12/29 04:19:39;;;;;;;7.90;4.40;;;;;;;-7.03;81.21;99217.55;102017;1316;138704;-64
2021/12/29 04:22:10;;;;;;;8.50;4.90;;;;;;;-7.02;81.29;99214.82;102215;1315;22610;-66
2021/12/29 04:24:38;;;;;;;9.30;5.10;;;;;;;-7.02;81.27;99212.11;102116;1315;138365;-66
2021/12/29 04:27:06;;;;;;;12.20;5.90;;;;;;;-7.02;81.21;99213.66;102229;1316;23040;-66
2021/12/29 04:29:34;;;;;;;11.10;5.50;;;;;;;-7.01;81.26;99216.81;102136;1316;23509;-66
2021/12/29 04:35:43;;;;;;;9.60;5.90;;;;;;;-6.98;81.32;99207.65;102221;1316;24345;-66
2021/12/29 04:38:13;;;;;;;10.80;5.50;;;;;;;-6.98;81.14;99209.95;102050;1315;138514;-66
2021/12/29 04:44:24;;;;;;;13.70;5.40;;;;;;;-6.95;81.20;99210.17;105915;1315;138371;-67
2021/12/29 04:46:54;;;;;;;9.70;5.40;;;;;;;-6.95;81.10;99208.98;103445;1316;102566;-65
2021/12/29 04:49:26;;;;;;;12.00;5.30;;;;;;;-6.94;81.09;99209.07;101987;1315;138197;-65
2021/12/29 04:52:03;;;;;;;11.30;6.30;;;;;;;-6.93;81.11;99212.41;102236;1316;22639;-65
2021/12/29 04:54:32;;;;;;;9.00;5.40;;;;;;;-6.91;81.09;99211.32;102192;1316;25613;-65
2021/12/29 04:57:00;;;;;;;11.90;6.10;;;;;;;-6.89;81.09;99215.02;102157;1316;137855;-65
2021/12/29 04:59:28;;;;;;;11.70;6.50;;;;;;;-6.87;81.04;99217.31;102182;1315;25479;-64
2021/12/29 05:01:56;;;;;;;8.80;5.70;;;;;;;-6.87;81.05;99223.34;102130;1316;138930;-64
2021/12/29 05:04:33;;;;;;;10.70;6.60;;;;;;;-6.89;81.02;99221.54;102292;1316;22569;-65
2021/12/29 05:09:48;;;;;;;11.60;6.30;;;;;;;-6.87;81.10;99213.97;102150;1315;25995;-64
2021/12/29 05:12:16;;;;;;;10.10;5.80;;;;;;;-6.86;81.21;99210.14;106259;1315;23495;-66
2021/12/29 05:14:44;;;;;;;9.20;6.00;;;;;;;-6.86;81.07;99212.09;106237;1315;137538;-65
2021/12/29 05:17:12;;;;;;;12.00;6.70;;;;;;;-6.85;81.02;99211.47;106349;1316;22469;-65
2021/12/29 05:19:40;;;;;;;11.70;6.40;;;;;;;-6.87;80.94;99211.65;105988;1315;138928;-65
2021/12/29 05:22:09;;;;;;;10.90;6.50;;;;;;;-6.89;80.97;99213.06;106270;1317;22535;-65
2021/12/29 05:24:37;;;;;;;11.40;7.20;;;;;;;-6.91;80.84;99212.52;106208;1315;138235;-65
2021/12/29 05:27:05;;;;;;;13.30;6.50;;;;;;;-6.90;80.94;99211.29;106328;1319;22610;-65
2021/12/29 05:29:32;;;;;;;10.40;5.90;;;;;;;-6.90;81.03;99208.22;106341;1315;22450;-65
2021/12/29 05:32:00;;;;;;;9.20;5.70;;;;;;;-6.87;80.92;99210.56;106243;1315;139261;-65
2021/12/29 05:34:29;;;;;;;9.20;5.90;;;;;;;-6.84;81.01;99208.34;106357;1316;22432;-65
2021/12/29 05:36:56;;;;;;;10.60;5.60;;;;;;;-6.81;81.11;99209.63;106206;1315;138104;-65
2021/12/29 05:39:24;;;;;;;14.20;7.30;;;;;;;-6.78;81.01;99214.30;106348;1315;23725;-65
2021/12/29 05:41:52;;;;;;;9.00;6.10;;;;;;;-6.78;80.85;99216.15;106366;1315;22458;-65
2021/12/29 05:44:20;;;;;;;11.80;5.80;;;;;;;-6.76;80.75;99219.34;106203;1315;139291;-65
2021/12/29 05:46:48;;;;;;;12.30;6.70;;;;;;;-6.72;80.87;99217.25;106295;1315;22442;-65
2021/12/29 05:49:16;;;;;;;9.30;6.20;;;;;;;-6.69;80.75;99217.30;106253;1315;139489;-65
2021/12/29 05:51:44;;;;;;;12.00;7.50;;;;;;;-6.68;80.67;99218.44;106351;1315;23297;-65
2021/12/29 05:54:14;;;;;;;13.10;6.60;;;;;;;-6.68;80.67;99218.60;106324;1316;22522;-65
2021/12/29 05:56:42;;;;;;;10.50;6.40;;;;;;;-6.67;80.52;99213.86;106241;1315;138729;-65
2021/12/29 05:59:10;;;;;;;13.00;7.80;;;;;;;-6.66;80.54;99210.59;106325;1319;22461;-65
2021/12/29 06:01:38;;;;;;;11.80;7.20;;;;;;;-6.64;80.47;99210.96;106237;1315;138216;-65
2021/12/29 06:04:07;;;;;;;20.40;8.70;;;;;;;-6.64;80.36;99211.28;106317;1315;22540;-65
2021/12/29 06:06:36;;;;;;;18.30;8.80;;;;;;;-6.65;80.24;99213.17;106245;1317;138399;-63
2021/12/29 06:09:03;;;;;;;11.10;6.60;;;;;;;-6.66;80.24;99216.60;105237;1323;22444;-65
2021/12/29 06:11:31;;;;;;;13.80;6.90;;;;;;;-6.66;80.24;99220.11;106330;1315;22473;-65
2021/12/29 06:13:59;;;;;;;10.40;6.50;;;;;;;-6.65;80.33;99220.52;106191;1315;138202;-65
2021/12/29 06:16:28;;;;;;;10.80;6.40;;;;;;;-6.65;80.20;99220.39;106336;1316;24483;-65
2021/12/29 06:18:57;;;;;;;11.60;7.80;;;;;;;-6.66;80.13;99212.14;106225;1315;140668;-65
2021/12/29 06:21:24;;;;;;;11.20;6.70;;;;;;;-6.66;80.09;99207.60;106358;1316;22628;-65
2021/12/29 06:23:52;;;;;;;16.40;8.30;;;;;;;-6.65;80.23;99206.39;106303;1315;22397;-65
2021/12/29 06:26:20;;;;;;;14.40;8.10;;;;;;;-6.63;80.22;99202.53;106139;1316;138161;-65
2021/12/29 06:28:49;;;;;;;11.50;6.60;;;;;;;-6.63;80.28;99205.29;106359;1316;23461;-65
2021/12/29 06:31:37;;;;;;;14.20;7.00;;;;;;;-6.61;80.16;99201.58;106157;1315;138017;-65
2021/12/29 06:34:04;;;;;;;10.70;6.50;;;;;;;-6.57;80.18;99204.73;106336;1315;23070;-65
2021/12/29 06:36:32;;;;;;;12.70;7.20;;;;;;;-6.55;80.12;99205.61;106349;1315;22440;-65
2021/12/29 06:39:02;;;;;;;29.70;12.30;;;;;;;-6.54;80.06;99208.66;106207;1314;138067;-65
2021/12/29 06:41:30;;;;;;;12.60;7.30;;;;;;;-6.52;80.12;99210.60;106371;1315;22482;-65
2021/12/29 06:43:58;;;;;;;15.00;8.20;;;;;;;-6.51;80.10;99215.38;106207;1316;139749;-65
2021/12/29 06:46:26;;;;;;;14.30;7.70;;;;;;;-6.49;80.07;99217.79;106325;1315;22546;-64
2021/12/29 06:48:54;;;;;;;12.40;7.50;;;;;;;-6.47;79.96;99218.79;106199;1319;140066;-65
2021/12/29 06:51:22;;;;;;;16.10;7.10;;;;;;;-6.45;79.85;99220.95;106288;1315;22437;-65
2021/12/29 06:53:49;;;;;;;13.90;7.40;;;;;;;-6.44;79.94;99222.89;106352;1315;22439;-65
2021/12/29 06:56:17;;;;;;;14.30;7.30;;;;;;;-6.44;79.90;99218.88;104306;1319;138454;-64
2021/12/29 06:58:45;;;;;;;11.80;6.80;;;;;;;-6.43;79.75;99222.30;102130;1315;24111;-64
2021/12/29 07:01:13;;;;;;;13.80;7.20;;;;;;;-6.43;79.88;99224.09;102081;1319;139306;-64
2021/12/29 07:03:42;;;;;;;10.70;6.70;;;;;;;-6.44;79.93;99223.13;106339;1316;22370;-65
2021/12/29 07:06:10;;;;;;;14.50;8.20;;;;;;;-6.43;79.86;99224.59;106241;1316;23053;-65
2021/12/29 07:08:40;;;;;;;22.90;10.30;;;;;;;-6.42;79.84;99220.79;106214;1315;139077;-66
2021/12/29 07:11:08;;;;;;;11.70;7.10;;;;;;;-6.42;79.70;99218.33;106356;1316;22481;-66
2021/12/29 07:13:36;;;;;;;22.30;10.00;;;;;;;-6.44;79.69;99212.85;106207;1315;138589;-64
2021/12/29 07:16:04;;;;;;;17.00;8.90;;;;;;;-6.43;79.86;99215.11;106331;1317;22498;-66
2021/12/29 07:18:32;;;;;;;15.50;8.30;;;;;;;-6.44;79.84;99219.38;106294;1315;22459;-67
2021/12/29 07:21:00;;;;;;;15.90;8.60;;;;;;;-6.44;79.66;99222.05;106154;1319;138106;-65
2021/12/29 07:23:28;;;;;;;15.90;9.80;;;;;;;-6.44;79.77;99219.08;106339;1315;22437;-65
2021/12/29 07:25:56;;;;;;;13.80;8.10;;;;;;;-6.44;79.78;99219.73;104979;1316;138806;-66
2021/12/29 07:28:24;;;;;;;15.10;8.70;;;;;;;-6.44;79.76;99219.54;102216;1315;22553;-64
2021/12/29 07:30:52;;;;;;;17.90;10.30;;;;;;;-6.43;79.79;99223.73;102076;1315;138414;-65
2021/12/29 07:33:20;;;;;;;16.20;9.60;;;;;;;-6.44;79.72;99222.02;102022;1315;22657;-65
2021/12/29 07:35:47;;;;;;;19.40;9.10;;;;;;;-6.43;79.77;99221.77;102108;1315;22585;-65
2021/12/29 07:38:16;;;;;;;16.50;9.10;;;;;;;-6.43;79.74;99218.45;101960;1317;138268;-65
2021/12/29 07:40:44;;;;;;;14.40;8.10;;;;;;;-6.44;79.70;99221.86;102120;1319;22599;-65
2021/12/29 07:43:12;;;;;;;20.60;9.90;;;;;;;-6.44;79.83;99219.58;106092;1316;138334;-66
2021/12/29 07:45:42;;;;;;;15.00;9.50;;;;;;;-6.43;80.00;99217.59;106314;1316;23216;-66
2021/12/29 07:48:10;;;;;;;17.00;8.80;;;;;;;-6.40;80.00;99220.98;106334;1315;22432;-66
2021/12/29 07:50:38;;;;;;;16.40;9.40;;;;;;;-6.38;80.00;99219.33;106216;1316;138638;-66
2021/12/29 07:53:07;;;;;;;14.80;8.70;;;;;;;-6.35;79.94;99222.27;106235;1315;22409;-66
2021/12/29 07:55:34;;;;;;;21.70;11.90;;;;;;;-6.33;79.91;99220.95;106244;1321;140410;-66
2021/12/29 07:58:02;;;;;;;14.40;9.00;;;;;;;-6.31;79.90;99224.28;106304;1316;22473;-66
2021/12/29 08:00:32;;;;;;;21.40;11.60;;;;;;;-6.30;79.79;99223.98;106314;1315;23468;-66
2021/12/29 08:03:00;;;;;;;20.50;9.70;;;;;;;-6.29;79.87;99222.61;106179;1315;138608;-66
2021/12/29 08:05:28;;;;;;;21.20;10.70;;;;;;;-6.26;79.69;99221.52;106349;1315;22274;-65
2021/12/29 08:07:56;;;;;;;19.70;9.80;;;;;;;-6.24;79.70;99222.01;106199;1315;141198;-65
2021/12/29 08:10:41;;;;;;;17.80;9.50;;;;;;;-6.24;79.56;99217.36;106330;1315;23112;-63
2021/12/29 08:13:09;;;;;;;17.80;11.50;;;;;;;-6.22;79.72;99222.12;105991;1322;138217;-64
2021/12/29 08:15:37;;;;;;;19.60;10.10;;;;;;;-6.21;79.75;99222.55;106156;1316;22322;-65
2021/12/29 08:18:05;;;;;;;23.00;10.80;;;;;;;-6.20;79.67;99222.90;106312;1315;23440;-64
2021/12/29 08:20:35;;;;;;;19.40;11.30;;;;;;;-6.20;79.67;99216.02;106201;1315;140576;-65
2021/12/29 08:23:04;;;;;;;21.50;10.70;;;;;;;-6.20;79.55;99220.62;106319;1315;22453;-65
2021/12/29 08:25:32;;;;;;;19.40;11.00;;;;;;;-6.18;79.62;99223.75;106211;1315;138592;-64
2021/12/29 08:28:00;;;;;;;23.80;12.90;;;;;;;-6.16;79.65;99222.70;106313;1321;22395;-65
2021/12/29 08:30:28;;;;;;;20.00;10.30;;;;;;;-6.14;79.56;99221.41;106303;1315;23190;-65
2021/12/29 08:32:57;;;;;;;26.10;12.80;;;;;;;-6.13;79.63;99224.48;106132;1316;138095;-65
2021/12/29 08:35:27;;;;;;;22.10;13.40;;;;;;;-6.11;79.55;99218.09;106312;1315;22354;-65
2021/12/29 08:37:55;;;;;;;25.80;16.30;;;;;;;-6.07;79.72;99216.59;106218;1315;138376;-65
2021/12/29 08:40:23;;;;;;;51.10;27.90;;;;;;;-6.05;79.55;99220.33;106323;1313;23494;-65
2021/12/29 08:42:51;;;;;;;47.20;28.70;;;;;;;-6.02;79.51;99222.35;106223;1315;138725;-65
2021/12/29 08:45:21;;;;;;;42.60;21.20;;;;;;;-6.00;79.45;99223.36;106326;1315;22472;-65
2021/12/29 08:49:41;;;;;;;25.30;12.70;;;;;;;-5.93;79.53;99223.13;99791;1346;545116;-65
2021/12/29 08:52:09;;;;;;;27.90;14.20;;;;;;;-5.92;79.38;99219.48;100886;1329;24487;-62
2021/12/29 08:54:38;;;;;;;25.30;16.00;;;;;;;-5.88;79.38;99220.91;100836;1329;24483;-66
2021/12/29 08:57:06;;;;;;;27.80;14.60;;;;;;;-5.87;79.31;99216.73;100798;1330;137872;-64
2021/12/29 08:59:39;;;;;;;26.20;15.50;;;;;;;-5.86;79.17;99215.29;100910;1332;24320;-66
2021/12/29 09:02:08;;;;;;;23.30;13.50;;;;;;;-5.87;78.99;99216.44;100779;1333;137376;-66
2021/12/29 09:04:36;;;;;;;23.90;13.40;;;;;;;-5.88;79.00;99215.68;100758;1327;25482;-65
2021/12/29 09:07:04;;;;;;;42.40;20.30;;;;;;;-5.89;79.06;99210.32;101122;1332;139124;-66
2021/12/29 09:09:33;;;;;;;28.60;15.10;;;;;;;-5.91;79.00;99206.65;101177;1329;22782;-66
2021/12/29 09:12:01;;;;;;;26.30;14.80;;;;;;;-5.90;78.80;99206.78;104993;1329;23564;-66
2021/12/29 09:14:32;;;;;;;39.20;23.70;;;;;;;-5.91;79.00;99208.58;104994;1327;137883;-66
2021/12/29 09:17:00;;;;;;;34.70;19.00;;;;;;;-5.90;78.93;99207.24;104952;1330;22500;-66
2021/12/29 09:19:30;;;;;;;24.30;13.50;;;;;;;-5.87;79.00;99210.85;104905;1327;138741;-66
2021/12/29 09:21:58;;;;;;;24.20;15.30;;;;;;;-5.85;78.88;99211.65;105112;1333;22415;-66
2021/12/29 09:24:26;;;;;;;24.50;13.40;;;;;;;-5.84;78.90;99216.27;105051;1331;22507;-66
2021/12/29 09:26:54;;;;;;;20.00;12.90;;;;;;;-5.82;78.93;99216.23;104916;1327;138256;-66
2021/12/29 09:29:32;;;;;;;21.10;14.20;;;;;;;-5.79;78.92;99218.11;105029;1327;22430;-65
2021/12/29 09:32:01;;;;;;;25.30;15.80;;;;;;;-5.77;78.96;99215.96;104948;1333;138565;-66
2021/12/29 09:34:30;;;;;;;27.50;15.90;;;;;;;-5.75;78.90;99216.74;105019;1331;22614;-65
2021/12/29 09:36:59;;;;;;;25.40;13.20;;;;;;;-5.71;78.77;99217.09;101946;1333;137602;-65
2021/12/29 09:39:27;;;;;;;23.00;13.70;;;;;;;-5.71;78.60;99215.94;100844;1331;22673;-64
2021/12/29 09:41:55;;;;;;;29.70;17.10;;;;;;;-5.71;78.72;99216.83;105026;1327;23271;-65
2021/12/29 09:44:23;;;;;;;24.20;14.60;;;;;;;-5.70;78.60;99222.40;104877;1327;137785;-66
2021/12/29 09:46:53;;;;;;;25.90;14.70;;;;;;;-5.70;78.59;99222.27;105061;1327;22539;-66
2021/12/29 09:49:22;;;;;;;23.10;15.20;;;;;;;-5.72;78.31;99224.75;104967;1333;138188;-66
2021/12/29 09:51:50;;;;;;;34.70;19.10;;;;;;;-5.75;78.32;99223.27;105049;1333;23445;-65
2021/12/29 09:54:24;;;;;;;30.90;17.60;;;;;;;-5.77;78.28;99222.09;104903;1332;23229;-67
2021/12/29 09:56:52;;;;;;;29.40;14.80;;;;;;;-5.76;78.39;99223.17;104990;1327;138994;-64
2021/12/29 09:59:20;;;;;;;26.40;15.00;;;;;;;-5.73;78.47;99218.67;105019;1331;22486;-65
2021/12/29 10:01:49;;;;;;;22.50;13.60;;;;;;;-5.70;78.45;99219.02;104948;1330;137935;-65
2021/12/29 10:04:18;;;;;;;27.40;14.70;;;;;;;-5.65;78.59;99215.06;105007;1330;22507;-65
2021/12/29 10:06:46;;;;;;;21.70;12.80;;;;;;;-5.62;78.52;99215.52;104862;1333;137933;-64
2021/12/29 10:09:15;;;;;;;22.60;13.70;;;;;;;-5.57;78.29;99214.20;105058;1330;22481;-65
2021/12/29 10:11:44;;;;;;;25.10;13.30;;;;;;;-5.56;78.17;99216.93;105059;1329;23178;-65
2021/12/29 10:14:15;;;;;;;23.40;13.70;;;;;;;-5.54;78.23;99220.42;104874;1333;137574;-65
2021/12/29 10:16:46;;;;;;;27.50;14.70;;;;;;;-5.51;78.27;99220.77;105049;1334;23496;-65
2021/12/29 10:19:14;;;;;;;26.80;15.00;;;;;;;-5.48;78.15;99219.90;104922;1332;137590;-67
2021/12/29 10:21:45;;;;;;;27.70;15.20;;;;;;;-5.45;78.11;99218.16;105065;1333;22479;-66
2021/12/29 10:24:13;;;;;;;32.10;16.40;;;;;;;-5.44;78.02;99215.52;105036;1330;24532;-65
2021/12/29 10:26:44;;;;;;;30.90;15.60;;;;;;;-5.42;77.90;99213.77;104795;1332;137550;-66
2021/12/29 10:29:14;;;;;;;28.20;15.70;;;;;;;-5.44;77.68;99212.23;105017;1333;23316;-66
2021/12/29 10:31:47;;;;;;;30.70;17.40;;;;;;;-5.49;77.62;99211.14;104928;1333;137258;-66
2021/12/29 10:34:26;;;;;;;26.50;15.80;;;;;;;-5.51;77.71;99214.06;104358;1335;22434;-66
2021/12/29 10:36:54;;;;;;;25.60;14.90;;;;;;;-5.50;77.93;99212.00;104952;1333;137522;-65
2021/12/29 10:39:25;;;;;;;33.50;16.80;;;;;;;-5.47;77.90;99214.48;105065;1333;22278;-66
2021/12/29 10:42:08;;;;;;;34.50;19.70;;;;;;;-5.49;77.79;99214.24;105021;1329;22424;-66
2021/12/29 10:44:40;;;;;;;36.10;18.90;;;;;;;-5.54;77.84;99207.78;104895;1333;139923;-66
2021/12/29 10:47:19;;;;;;;31.40;17.80;;;;;;;-5.53;77.94;99208.98;105044;1330;23161;-65
2021/12/29 10:50:12;;;;;;;38.20;21.50;;;;;;;-5.51;77.92;99212.98;104906;1334;138387;-66
2021/12/29 10:52:48;;;;;;;34.30;17.20;;;;;;;-5.50;77.96;99214.83;105047;1333;22427;-66
2021/12/29 10:55:31;;;;;;;32.40;19.40;;;;;;;-5.49;78.03;99215.10;105006;1333;138989;-66
2021/12/29 10:58:20;;;;;;;34.50;18.80;;;;;;;-5.49;78.21;99211.69;104682;1330;22417;-66
2021/12/29 11:01:06;;;;;;;35.90;19.60;;;;;;;-5.49;78.01;99206.90;105261;1330;138758;-67
2021/12/29 11:03:43;;;;;;;31.20;16.80;;;;;;;-5.48;78.22;99205.59;105311;1330;23561;-66
2021/12/29 11:06:13;;;;;;;33.00;17.30;;;;;;;-5.43;78.25;99207.36;105407;1330;22314;-67
2021/12/29 11:08:46;;;;;;;32.00;19.20;;;;;;;-5.41;78.09;99208.86;105265;1327;137777;-66
2021/12/29 11:11:15;;;;;;;41.70;19.80;;;;;;;-5.40;78.29;99211.95;105364;1331;23352;-67
2021/12/29 11:13:43;;;;;;;33.40;19.20;;;;;;;-5.40;78.07;99208.10;105296;1327;139972;-67
2021/12/29 11:16:31;;;;;;;30.40;17.30;;;;;;;-5.40;78.16;99208.73;105065;1327;23003;-67
2021/12/29 11:18:59;;;;;;;31.60;18.50;;;;;;;-5.38;78.00;99207.31;105762;1327;138230;-66
2021/12/29 11:21:29;;;;;;;31.40;18.20;;;;;;;-5.40;78.05;99208.06;105871;1323;22473;-67
2021/12/29 11:24:11;;;;;;;30.80;17.70;;;;;;;-5.41;78.12;99208.50;105881;1320;22489;-66
2021/12/29 11:26:39;;;;;;;34.20;18.90;;;;;;;-5.38;78.12;99212.13;105805;1319;137366;-66
2021/12/29 11:29:08;;;;;;;33.00;18.60;;;;;;;-5.38;78.00;99218.80;105885;1323;22297;-66
2021/12/29 11:32:00;;;;;;;34.40;20.60;;;;;;;-5.38;78.09;99216.87;105789;1325;137476;-66
2021/12/29 11:34:29;;;;;;;31.30;18.10;;;;;;;-5.38;77.96;99217.73;105893;1324;22542;-67
2021/12/29 11:37:03;;;;;;;32.90;18.90;;;;;;;-5.37;78.06;99222.29;105792;1320;137985;-66
2021/12/29 11:39:33;;;;;;;37.10;20.20;;;;;;;-5.38;78.09;99219.69;105863;1324;22580;-65
2021/12/29 11:42:01;;;;;;;38.20;21.40;;;;;;;-5.39;77.97;99217.13;105901;1325;22438;-65